Time;durP1;ratioP1;P1;durP2;ratioP2;P2;SDS_P1;SDS_P2;PMS_P1;PMS_P2;Temp;Humidity;BMP_temperature;BMP_pressure;BME280_temperature;BME280_humidity;BME280_pressure;Samples;Min_cycle;Max_cycle;Signal;HPM_P1;HPM_P2
2022/03/15 00:02:18;;;;;;;11.52;6.10;;;4.90;99.90;;;;;;4941026;28;20054;-59
2022/03/15 00:04:44;;;;;;;21.02;7.35;;;4.90;99.90;;;;;;4940862;28;20046;-60
2022/03/15 00:07:15;;;;;;;15.65;7.43;;;4.80;99.90;;;;;;4940585;28;20051;-60
2022/03/15 00:09:42;;;;;;;14.48;6.93;;;4.90;99.90;;;;;;4942077;28;20401;-58
2022/03/15 00:12:09;;;;;;;17.42;6.97;;;4.80;99.90;;;;;;4937557;28;20265;-60
2022/03/15 00:14:38;;;;;;;15.27;6.72;;;4.80;99.90;;;;;;4942201;28;20525;-60
2022/03/15 00:17:05;;;;;;;15.98;6.95;;;4.80;99.90;;;;;;4938274;28;20087;-58
2022/03/15 00:19:31;;;;;;;15.95;7.40;;;4.80;99.90;;;;;;4943637;28;20138;-60
2022/03/15 00:21:57;;;;;;;18.65;7.60;;;4.80;99.90;;;;;;4939951;28;20688;-60
2022/03/15 00:24:23;;;;;;;17.67;7.03;;;4.80;99.90;;;;;;4941117;28;20051;-60
2022/03/15 00:26:50;;;;;;;20.38;7.45;;;4.90;99.90;;;;;;4940320;28;20062;-61
2022/03/15 00:29:17;;;;;;;20.98;8.30;;;4.80;99.90;;;;;;4943434;28;20043;-60
2022/03/15 00:31:44;;;;;;;22.60;8.43;;;4.80;99.90;;;;;;4941085;28;20066;-60
2022/03/15 00:34:10;;;;;;;24.15;9.15;;;4.70;99.90;;;;;;4908401;28;20043;-61
2022/03/15 00:36:37;;;;;;;16.42;8.63;;;4.70;99.90;;;;;;4939099;28;20794;-61
2022/03/15 00:39:04;;;;;;;21.33;9.32;;;4.70;99.90;;;;;;4943862;28;20082;-60
2022/03/15 00:41:31;;;;;;;20.42;8.10;;;4.70;99.90;;;;;;4947795;28;20457;-61
2022/03/15 00:43:57;;;;;;;19.60;8.65;;;4.70;99.90;;;;;;4948033;28;20497;-59
2022/03/15 00:46:23;;;;;;;27.40;8.90;;;4.70;99.90;;;;;;4946332;28;20082;-59
2022/03/15 00:48:48;;;;;;;21.48;9.30;;;4.70;99.90;;;;;;4948085;28;20048;-60
2022/03/15 00:51:14;;;;;;;22.83;9.32;;;4.70;99.90;;;;;;4946705;28;20175;-60
2022/03/15 00:53:41;;;;;;;27.15;10.07;;;4.70;99.90;;;;;;4947079;28;20062;-60
2022/03/15 00:56:07;;;;;;;21.50;8.45;;;4.70;99.90;;;;;;4946828;28;20051;-60
2022/03/15 00:58:33;;;;;;;18.83;8.90;;;4.60;99.90;;;;;;4948515;28;20047;-59
2022/03/15 01:00:59;;;;;;;26.98;10.13;;;4.60;99.90;;;;;;4946077;28;20102;-60
2022/03/15 01:03:25;;;;;;;20.10;9.18;;;4.60;99.90;;;;;;4947720;28;20405;-58
2022/03/15 01:05:51;;;;;;;25.77;9.55;;;4.60;99.90;;;;;;4945936;28;20047;-60
2022/03/15 01:08:17;;;;;;;23.30;9.50;;;4.60;99.90;;;;;;4946864;28;20583;-60
2022/03/15 01:10:43;;;;;;;27.00;9.38;;;4.50;99.90;;;;;;4947452;28;20054;-60
2022/03/15 01:13:09;;;;;;;21.92;9.80;;;4.60;99.90;;;;;;4945979;28;20047;-60
2022/03/15 01:15:40;;;;;;;21.85;9.73;;;4.50;99.90;;;;;;4947923;28;20143;-60
2022/03/15 01:18:06;;;;;;;26.13;9.73;;;4.50;99.90;;;;;;4947669;28;20771;-61
2022/03/15 01:20:32;;;;;;;20.70;9.50;;;4.50;99.90;;;;;;4948533;29;20106;-60
2022/03/15 01:22:57;;;;;;;26.88;9.60;;;4.50;99.90;;;;;;4946783;28;20171;-59
2022/03/15 01:25:23;;;;;;;22.13;10.20;;;4.50;99.90;;;;;;4946804;28;20043;-60
2022/03/15 01:27:51;;;;;;;23.00;9.73;;;4.50;99.90;;;;;;4946370;28;20129;-61
2022/03/15 01:30:16;;;;;;;24.65;9.90;;;4.50;99.90;;;;;;4947686;28;20086;-60
2022/03/15 01:32:42;;;;;;;24.90;10.23;;;4.50;99.90;;;;;;4943944;28;20130;-60
2022/03/15 01:35:08;;;;;;;27.35;10.32;;;4.50;99.90;;;;;;4945614;28;20039;-60
2022/03/15 01:37:34;;;;;;;27.05;10.20;;;4.40;99.90;;;;;;4946048;28;20052;-60
2022/03/15 01:40:00;;;;;;;23.40;10.43;;;4.40;99.90;;;;;;4946870;28;20058;-59
2022/03/15 01:42:26;;;;;;;27.05;11.10;;;4.40;99.90;;;;;;4945938;28;20078;-60
2022/03/15 01:44:52;;;;;;;20.90;10.23;;;4.40;99.90;;;;;;4946274;28;20541;-60
2022/03/15 01:47:19;;;;;;;25.02;10.48;;;4.40;99.90;;;;;;4944203;28;20059;-58
2022/03/15 01:49:45;;;;;;;22.88;10.43;;;4.40;99.90;;;;;;4944209;28;20122;-60
2022/03/15 01:52:13;;;;;;;18.17;9.57;;;4.30;99.90;;;;;;4942487;28;20109;-60
2022/03/15 01:54:40;;;;;;;35.15;11.63;;;4.30;99.90;;;;;;4943975;28;20465;-60
2022/03/15 01:57:07;;;;;;;24.83;11.70;;;4.30;99.90;;;;;;4944376;28;20509;-60
2022/03/15 01:59:34;;;;;;;24.65;11.55;;;4.30;99.90;;;;;;4942259;28;20080;-61
2022/03/15 02:02:00;;;;;;;22.92;11.30;;;4.30;99.90;;;;;;4931251;28;20074;-60
2022/03/15 02:04:26;;;;;;;23.70;11.63;;;4.30;99.90;;;;;;4943202;28;20074;-59
2022/03/15 02:07:04;;;;;;;24.25;11.32;;;4.30;99.90;;;;;;4921643;28;20059;-60
2022/03/15 02:09:30;;;;;;;22.00;11.68;;;4.30;99.90;;;;;;4942893;28;20569;-60
2022/03/15 02:11:57;;;;;;;19.83;10.70;;;4.20;99.90;;;;;;4941230;28;20055;-60
2022/03/15 02:14:23;;;;;;;26.77;12.25;;;4.20;99.90;;;;;;4926955;28;20043;-60
2022/03/15 02:16:48;;;;;;;23.08;12.23;;;4.20;99.90;;;;;;4941180;28;20552;-60
2022/03/15 02:19:14;;;;;;;27.83;13.50;;;4.20;99.90;;;;;;4943980;28;20043;-60
2022/03/15 02:21:40;;;;;;;26.75;13.50;;;4.20;99.90;;;;;;4943047;28;20051;-61
2022/03/15 02:24:07;;;;;;;26.40;12.82;;;4.20;99.90;;;;;;4942427;28;20058;-60
2022/03/15 02:26:33;;;;;;;29.45;14.13;;;4.20;99.90;;;;;;4947670;28;20498;-61
2022/03/15 02:28:59;;;;;;;32.45;13.48;;;4.20;99.90;;;;;;4943444;28;20126;-59
2022/03/15 02:31:25;;;;;;;27.80;13.85;;;4.20;99.90;;;;;;4942674;28;20101;-60
2022/03/15 02:33:51;;;;;;;31.95;14.32;;;4.20;99.90;;;;;;4940604;28;20043;-60
2022/03/15 02:36:17;;;;;;;27.55;14.02;;;4.20;99.90;;;;;;4944169;28;20087;-60
2022/03/15 02:38:46;;;;;;;29.67;13.02;;;4.20;99.90;;;;;;4941806;28;20054;-60
2022/03/15 02:41:13;;;;;;;24.50;13.07;;;4.20;99.90;;;;;;4943102;28;20391;-60
2022/03/15 02:43:40;;;;;;;26.90;14.63;;;4.20;99.90;;;;;;4941813;28;20055;-61
2022/03/15 02:46:07;;;;;;;28.67;13.80;;;4.30;99.90;;;;;;4941780;28;20345;-61
2022/03/15 02:48:34;;;;;;;30.38;15.68;;;4.30;99.90;;;;;;4943421;28;20394;-61
2022/03/15 02:51:04;;;;;;;33.22;15.75;;;4.30;99.90;;;;;;4942890;28;20130;-60
2022/03/15 02:53:30;;;;;;;29.33;14.98;;;4.40;99.90;;;;;;4942579;28;20158;-61
2022/03/15 02:55:55;;;;;;;28.83;15.30;;;4.40;99.90;;;;;;4944421;28;20043;-60
2022/03/15 02:58:21;;;;;;;28.58;14.38;;;4.50;99.90;;;;;;4942487;28;20088;-60
2022/03/15 03:00:48;;;;;;;29.27;14.38;;;4.50;99.90;;;;;;4943460;28;20058;-60
2022/03/15 03:03:14;;;;;;;35.22;16.23;;;4.50;99.90;;;;;;4941545;28;20143;-60
2022/03/15 03:05:40;;;;;;;30.02;15.38;;;4.50;99.90;;;;;;4941462;28;20043;-59
2022/03/15 03:08:06;;;;;;;35.28;16.23;;;4.60;99.90;;;;;;4942235;28;20039;-61
2022/03/15 03:10:33;;;;;;;26.67;15.93;;;4.60;99.90;;;;;;4909910;29;23147;-58
2022/03/15 03:12:59;;;;;;;33.90;16.70;;;4.60;99.90;;;;;;4946919;28;20083;-61
2022/03/15 03:15:26;;;;;;;32.38;15.52;;;4.60;99.90;;;;;;4936768;28;20098;-60
2022/03/15 03:17:52;;;;;;;33.35;16.00;;;4.60;99.90;;;;;;4939259;28;20051;-61
2022/03/15 03:20:19;;;;;;;26.70;15.68;;;4.70;99.90;;;;;;4943303;28;20051;-60
2022/03/15 03:22:53;;;;;;;27.45;15.80;;;4.80;99.90;;;;;;4940679;28;20114;-61
2022/03/15 03:25:19;;;;;;;31.98;15.63;;;4.80;99.90;;;;;;4943209;28;20047;-60
2022/03/15 03:27:46;;;;;;;29.73;15.50;;;4.80;99.90;;;;;;4943053;28;20620;-60
2022/03/15 03:30:13;;;;;;;28.55;16.40;;;4.80;99.90;;;;;;4940346;28;20061;-60
2022/03/15 03:32:40;;;;;;;29.92;15.57;;;4.80;99.90;;;;;;4938652;28;20059;-60
2022/03/15 03:35:07;;;;;;;28.88;15.25;;;4.90;99.90;;;;;;4942037;28;20082;-60
2022/03/15 03:37:33;;;;;;;31.58;15.02;;;4.90;99.90;;;;;;4941288;28;20165;-60
2022/03/15 03:39:59;;;;;;;31.40;17.58;;;4.90;99.90;;;;;;4902319;29;20499;-60
2022/03/15 03:42:25;;;;;;;36.15;16.60;;;4.90;99.90;;;;;;4937010;28;20074;-60
2022/03/15 03:44:51;;;;;;;33.67;17.75;;;5.00;99.90;;;;;;4942664;28;20067;-60
2022/03/15 03:47:17;;;;;;;33.40;17.52;;;5.00;99.90;;;;;;4941478;28;20053;-60
2022/03/15 03:49:43;;;;;;;33.88;17.13;;;5.00;99.90;;;;;;4942276;28;20450;-57
2022/03/15 03:52:12;;;;;;;33.25;17.15;;;5.10;99.90;;;;;;4939112;28;20047;-60
2022/03/15 03:54:38;;;;;;;38.78;19.33;;;5.10;99.90;;;;;;4939797;28;20083;-61
2022/03/15 03:57:04;;;;;;;39.10;18.88;;;5.10;99.90;;;;;;4940258;28;20082;-60
2022/03/15 03:59:30;;;;;;;33.40;17.45;;;5.20;99.90;;;;;;4941711;28;20047;-60
2022/03/15 04:01:56;;;;;;;34.05;18.30;;;5.20;99.90;;;;;;4922480;28;20520;-60
2022/03/15 04:04:22;;;;;;;32.92;18.15;;;5.30;99.90;;;;;;4941579;28;20043;-61
2022/03/15 04:06:48;;;;;;;45.00;17.40;;;5.30;99.90;;;;;;4929171;28;20054;-58
2022/03/15 04:09:14;;;;;;;37.88;17.08;;;5.40;99.90;;;;;;4931455;28;20506;-60
2022/03/15 04:11:41;;;;;;;42.50;17.38;;;5.40;99.90;;;;;;4939766;28;20626;-59
2022/03/15 04:14:11;;;;;;;43.50;17.60;;;5.40;99.90;;;;;;4940565;28;20603;-61
2022/03/15 04:16:38;;;;;;;33.17;16.05;;;5.50;99.90;;;;;;4936941;28;20058;-60
2022/03/15 04:19:04;;;;;;;31.55;15.57;;;5.50;99.90;;;;;;4942913;28;20043;-60
2022/03/15 04:21:31;;;;;;;36.08;16.75;;;5.50;99.90;;;;;;4924001;28;20094;-60
2022/03/15 04:23:57;;;;;;;34.55;15.70;;;5.60;99.90;;;;;;4935545;28;20083;-60
2022/03/15 04:26:24;;;;;;;36.17;16.40;;;5.60;99.90;;;;;;4941221;28;20856;-61
2022/03/15 04:28:51;;;;;;;32.97;15.48;;;5.60;99.90;;;;;;4939570;28;20493;-60
2022/03/15 04:31:17;;;;;;;31.63;17.13;;;5.60;99.90;;;;;;4939095;28;20090;-60
2022/03/15 04:33:43;;;;;;;30.65;15.55;;;5.70;99.90;;;;;;4938210;28;20047;-60
2022/03/15 04:36:10;;;;;;;34.47;17.13;;;5.70;99.90;;;;;;4941090;28;20109;-60
2022/03/15 04:38:36;;;;;;;32.83;16.60;;;5.70;99.90;;;;;;4940969;28;20511;-60
2022/03/15 04:41:07;;;;;;;34.00;16.73;;;5.70;99.90;;;;;;4941172;28;20051;-60
2022/03/15 04:43:33;;;;;;;34.38;16.65;;;5.70;99.90;;;;;;4939856;28;20431;-60
2022/03/15 04:46:01;;;;;;;32.45;15.95;;;5.80;99.90;;;;;;4941446;28;20145;-60
2022/03/15 04:48:27;;;;;;;30.33;16.30;;;5.80;99.90;;;;;;4942205;28;20110;-60
2022/03/15 04:50:53;;;;;;;28.80;17.20;;;5.80;99.90;;;;;;4941398;28;20537;-60
2022/03/15 04:53:19;;;;;;;37.05;17.38;;;5.90;99.90;;;;;;4936993;28;20051;-59
2022/03/15 04:55:45;;;;;;;37.63;18.05;;;5.80;99.90;;;;;;4942505;28;20535;-59
2022/03/15 04:58:11;;;;;;;38.45;17.58;;;5.90;99.90;;;;;;4944552;28;20073;-61
2022/03/15 05:00:37;;;;;;;30.25;16.52;;;5.80;99.90;;;;;;4940995;28;20055;-60
2022/03/15 05:03:03;;;;;;;37.58;17.70;;;5.90;99.90;;;;;;4940319;28;20161;-60
2022/03/15 05:05:29;;;;;;;35.45;17.48;;;5.90;99.90;;;;;;4939525;28;20054;-60
2022/03/15 05:07:54;;;;;;;36.33;17.42;;;5.90;99.90;;;;;;4955159;28;20066;-60
2022/03/15 05:13:06;;;;;;;36.35;18.80;;;5.90;99.90;;;;;;4940124;28;20094;-60
2022/03/15 05:15:33;;;;;;;33.33;18.88;;;5.90;99.90;;;;;;4940565;28;20043;-59
2022/03/15 05:18:01;;;;;;;39.13;18.67;;;5.90;99.90;;;;;;4941587;28;20060;-60
2022/03/15 05:20:29;;;;;;;33.15;17.00;;;5.90;99.90;;;;;;4938528;28;20056;-60
2022/03/15 05:22:56;;;;;;;42.67;19.73;;;6.00;99.90;;;;;;4941162;28;20047;-58
2022/03/15 05:25:22;;;;;;;38.58;19.30;;;5.90;99.90;;;;;;4929163;28;20043;-61
2022/03/15 05:27:48;;;;;;;36.67;18.80;;;6.00;99.90;;;;;;4948243;28;20169;-60
2022/03/15 05:30:15;;;;;;;40.83;19.95;;;6.00;99.90;;;;;;4946493;28;20093;-60
2022/03/15 05:32:41;;;;;;;44.75;19.80;;;6.00;99.90;;;;;;4943461;28;20142;-60
2022/03/15 05:35:07;;;;;;;31.08;19.27;;;6.00;99.90;;;;;;4942462;28;20138;-60
2022/03/15 05:37:33;;;;;;;42.75;20.88;;;6.00;99.90;;;;;;4944432;28;20055;-60
2022/03/15 05:39:59;;;;;;;36.70;20.35;;;6.00;99.90;;;;;;4912907;28;20087;-60
2022/03/15 05:42:25;;;;;;;39.10;19.75;;;6.00;99.90;;;;;;4939450;28;20401;-59
2022/03/15 05:44:51;;;;;;;40.72;20.70;;;6.00;99.90;;;;;;4945725;28;20063;-60
2022/03/15 05:47:17;;;;;;;50.25;21.38;;;6.10;99.90;;;;;;4944448;28;20051;-60
2022/03/15 05:49:43;;;;;;;39.88;20.58;;;6.10;99.90;;;;;;4946235;28;20130;-59
2022/03/15 05:52:09;;;;;;;35.53;20.35;;;6.10;99.90;;;;;;4932106;28;20410;-61
2022/03/15 05:54:35;;;;;;;36.75;19.10;;;6.10;99.90;;;;;;4943300;28;20506;-61
2022/03/15 05:57:02;;;;;;;42.28;20.40;;;6.10;99.90;;;;;;4944189;28;20047;-59
2022/03/15 05:59:28;;;;;;;35.13;19.35;;;6.10;99.90;;;;;;4950972;28;20047;-61
2022/03/15 06:01:54;;;;;;;43.13;20.15;;;6.10;99.90;;;;;;4943004;28;20051;-61
2022/03/15 06:04:21;;;;;;;42.85;19.45;;;6.10;99.90;;;;;;4945808;28;20061;-60
2022/03/15 06:06:47;;;;;;;35.50;20.02;;;6.10;99.90;;;;;;4943856;28;20051;-60
2022/03/15 06:09:13;;;;;;;38.13;20.00;;;6.20;99.90;;;;;;4943585;28;20450;-60
2022/03/15 06:11:39;;;;;;;38.67;19.20;;;6.20;99.90;;;;;;4942560;28;20133;-61
2022/03/15 06:14:08;;;;;;;35.22;19.10;;;6.10;99.90;;;;;;4944982;28;20055;-60
2022/03/15 06:16:34;;;;;;;42.47;20.70;;;6.20;99.90;;;;;;4942017;28;20058;-60
2022/03/15 06:19:00;;;;;;;38.95;19.50;;;6.10;99.90;;;;;;4936074;28;20047;-60
2022/03/15 06:21:26;;;;;;;37.78;19.95;;;6.10;99.90;;;;;;4941265;28;20130;-60
2022/03/15 06:23:52;;;;;;;37.50;19.30;;;6.10;99.90;;;;;;4941637;28;20051;-61
2022/03/15 06:26:20;;;;;;;40.47;19.35;;;6.10;99.90;;;;;;4945207;28;20051;-60
2022/03/15 06:28:46;;;;;;;35.95;18.73;;;6.20;99.90;;;;;;4943958;28;20414;-61
2022/03/15 06:31:13;;;;;;;34.42;18.50;;;6.20;99.90;;;;;;4954854;28;20653;-60
2022/03/15 06:33:39;;;;;;;34.42;19.05;;;6.10;99.90;;;;;;4938788;28;20057;-60
2022/03/15 06:36:11;;;;;;;35.38;18.27;;;6.20;99.90;;;;;;4938132;28;20126;-61
2022/03/15 06:38:41;;;;;;;33.90;18.48;;;6.20;99.90;;;;;;4933051;28;20047;-60
2022/03/15 06:41:11;;;;;;;34.10;18.40;;;6.20;99.90;;;;;;4926721;29;20086;-61
2022/03/15 06:43:41;;;;;;;38.50;17.77;;;6.30;99.90;;;;;;4941583;28;20043;-60
2022/03/15 06:46:10;;;;;;;37.58;17.75;;;6.30;99.90;;;;;;4941410;28;20067;-60
2022/03/15 06:48:36;;;;;;;34.10;17.58;;;6.30;99.90;;;;;;4938589;28;20090;-61
2022/03/15 06:51:03;;;;;;;34.40;17.75;;;6.30;99.90;;;;;;4924770;29;20047;-59
2022/03/15 06:53:29;;;;;;;38.90;20.83;;;6.30;99.90;;;;;;4941146;28;20059;-61
2022/03/15 06:55:55;;;;;;;43.38;19.50;;;6.30;99.90;;;;;;4944944;28;20047;-60
2022/03/15 06:58:21;;;;;;;34.75;18.02;;;6.40;99.90;;;;;;4942088;28;20050;-61
2022/03/15 07:00:47;;;;;;;41.38;18.25;;;6.40;99.90;;;;;;4942678;28;20398;-60
2022/03/15 07:03:14;;;;;;;34.38;19.50;;;6.40;99.90;;;;;;4942025;28;20098;-61
2022/03/15 07:05:40;;;;;;;38.50;19.65;;;6.40;99.90;;;;;;4942541;28;20473;-60
2022/03/15 07:08:07;;;;;;;38.22;20.13;;;6.50;99.90;;;;;;4924552;28;20039;-60
2022/03/15 07:10:34;;;;;;;39.40;20.30;;;6.50;99.90;;;;;;4934164;28;20130;-61
2022/03/15 07:13:00;;;;;;;36.60;20.05;;;6.50;99.90;;;;;;4940406;28;20047;-65
2022/03/15 07:15:26;;;;;;;34.47;19.52;;;6.50;99.90;;;;;;4909575;28;20138;-66
2022/03/15 07:17:53;;;;;;;36.58;21.10;;;6.50;99.90;;;;;;4940047;28;20051;-66
2022/03/15 07:20:22;;;;;;;38.40;20.70;;;6.60;99.90;;;;;;4942389;28;20519;-67
2022/03/15 07:22:48;;;;;;;38.92;19.85;;;6.60;99.90;;;;;;4925828;29;20051;-67
2022/03/15 07:25:14;;;;;;;39.60;21.35;;;6.60;99.90;;;;;;4942437;28;20473;-66
2022/03/15 07:27:40;;;;;;;43.38;21.75;;;6.60;99.90;;;;;;4957428;28;20126;-67
2022/03/15 07:30:07;;;;;;;41.40;22.50;;;6.80;99.90;;;;;;4941611;28;20051;-67
2022/03/15 07:32:33;;;;;;;43.22;22.83;;;6.70;99.90;;;;;;4940425;28;20051;-67
2022/03/15 07:34:59;;;;;;;42.67;22.52;;;6.80;99.90;;;;;;4914436;29;20086;-68
2022/03/15 07:37:25;;;;;;;45.20;22.73;;;6.80;99.90;;;;;;4925099;29;20562;-66
2022/03/15 07:39:51;;;;;;;42.13;22.38;;;6.80;99.90;;;;;;4956665;28;20135;-67
2022/03/15 07:42:18;;;;;;;43.03;23.02;;;6.90;99.90;;;;;;4957091;28;20047;-66
2022/03/15 07:44:44;;;;;;;49.25;24.25;;;6.90;99.90;;;;;;4934248;28;20063;-67
2022/03/15 07:47:10;;;;;;;44.53;24.75;;;6.90;99.90;;;;;;4933650;29;20607;-66
2022/03/15 07:49:37;;;;;;;49.70;26.05;;;7.00;99.90;;;;;;4941443;28;20114;-66
2022/03/15 07:52:03;;;;;;;56.55;25.42;;;7.00;99.90;;;;;;4928674;28;20541;-66
2022/03/15 07:54:29;;;;;;;48.88;23.85;;;7.00;99.90;;;;;;4941257;28;20650;-67
2022/03/15 07:56:55;;;;;;;52.33;25.20;;;7.10;99.90;;;;;;4940904;28;20132;-66
2022/03/15 07:59:22;;;;;;;45.70;24.45;;;7.10;99.90;;;;;;4941194;28;20474;-66
2022/03/15 08:01:48;;;;;;;45.38;25.23;;;7.20;99.90;;;;;;4953719;28;20399;-67
2022/03/15 08:04:14;;;;;;;46.47;24.60;;;7.20;99.90;;;;;;4940668;28;20521;-66
2022/03/15 08:06:40;;;;;;;49.35;25.88;;;7.20;99.90;;;;;;4939242;28;20061;-66
2022/03/15 08:09:06;;;;;;;50.63;24.83;;;7.30;99.90;;;;;;4940950;28;20051;-66
2022/03/15 08:11:33;;;;;;;49.92;26.42;;;7.30;99.90;;;;;;4925161;28;20565;-67
2022/03/15 08:13:59;;;;;;;47.28;25.85;;;7.40;99.90;;;;;;4925084;29;20081;-66
2022/03/15 08:16:25;;;;;;;44.83;25.08;;;7.40;99.90;;;;;;4939447;28;20047;-65
2022/03/15 08:18:53;;;;;;;46.25;26.33;;;7.40;99.90;;;;;;4940698;28;20043;-67
2022/03/15 08:21:20;;;;;;;46.75;25.58;;;7.50;99.90;;;;;;4925946;29;20051;-68
2022/03/15 08:23:46;;;;;;;46.15;25.17;;;7.50;99.90;;;;;;4924104;29;20071;-67
2022/03/15 08:26:14;;;;;;;48.17;26.13;;;7.50;99.90;;;;;;4932535;29;20505;-68
2022/03/15 08:28:40;;;;;;;44.83;24.65;;;7.60;99.90;;;;;;4924473;29;20047;-68
2022/03/15 08:31:06;;;;;;;46.75;26.30;;;7.70;99.90;;;;;;4941967;28;20050;-67
2022/03/15 08:33:32;;;;;;;49.20;25.20;;;7.70;99.90;;;;;;4932203;28;20498;-68
2022/03/15 08:35:58;;;;;;;44.10;25.17;;;7.70;99.90;;;;;;4918522;29;20051;-67
2022/03/15 08:38:26;;;;;;;43.42;25.13;;;7.70;99.90;;;;;;4940548;28;20076;-68
2022/03/15 08:40:52;;;;;;;51.70;24.27;;;7.80;99.90;;;;;;4940511;28;20051;-67
2022/03/15 08:43:18;;;;;;;44.65;24.65;;;7.80;99.90;;;;;;4931332;28;20483;-67
2022/03/15 08:45:44;;;;;;;45.70;25.15;;;7.90;99.90;;;;;;4955679;28;20102;-67
2022/03/15 08:48:10;;;;;;;40.15;24.70;;;7.90;99.90;;;;;;4906059;28;20051;-67
2022/03/15 08:50:36;;;;;;;45.78;24.20;;;7.90;99.90;;;;;;4940134;28;20490;-68
2022/03/15 08:53:03;;;;;;;45.70;23.92;;;8.00;99.90;;;;;;4917272;29;20062;-68
2022/03/15 08:55:29;;;;;;;40.65;24.17;;;8.00;99.90;;;;;;4940648;28;20066;-68
2022/03/15 08:57:56;;;;;;;39.60;24.10;;;8.00;99.90;;;;;;4915436;29;20079;-66
2022/03/15 09:00:22;;;;;;;42.05;24.40;;;8.10;99.90;;;;;;4925167;29;20043;-68
2022/03/15 09:02:48;;;;;;;45.00;25.00;;;8.10;99.90;;;;;;4950202;28;20054;-68
2022/03/15 09:05:18;;;;;;;44.45;24.85;;;8.10;99.90;;;;;;4944984;28;20358;-67
2022/03/15 09:07:51;;;;;;;39.22;23.88;;;8.20;99.90;;;;;;4913264;29;20576;-68
2022/03/15 09:10:18;;;;;;;45.67;23.85;;;8.20;99.90;;;;;;4943980;28;20521;-67
2022/03/15 09:12:45;;;;;;;41.42;23.85;;;8.30;99.90;;;;;;4927143;29;20043;-68
2022/03/15 09:15:11;;;;;;;47.83;24.20;;;8.30;99.90;;;;;;4943735;28;20445;-67
2022/03/15 09:17:37;;;;;;;39.42;22.60;;;8.40;99.90;;;;;;4949266;28;20066;-67
2022/03/15 09:20:04;;;;;;;37.63;23.05;;;8.40;99.90;;;;;;4928093;29;20502;-66
2022/03/15 09:22:30;;;;;;;39.35;22.88;;;8.50;99.90;;;;;;4933302;29;20438;-67
2022/03/15 09:24:55;;;;;;;38.25;23.35;;;8.60;99.90;;;;;;4929144;29;20131;-66
2022/03/15 09:27:21;;;;;;;39.05;22.13;;;8.60;99.90;;;;;;4943226;28;20047;-67
2022/03/15 09:29:48;;;;;;;44.28;23.10;;;8.70;99.90;;;;;;4917376;29;20817;-68
2022/03/15 09:32:15;;;;;;;36.92;22.13;;;8.70;99.90;;;;;;4925257;29;20522;-68
2022/03/15 09:34:42;;;;;;;39.58;22.00;;;8.70;99.90;;;;;;4942959;28;20121;-68
2022/03/15 09:37:08;;;;;;;37.42;22.35;;;8.80;99.90;;;;;;4916313;29;20510;-66
2022/03/15 09:39:34;;;;;;;33.13;22.00;;;8.80;99.90;;;;;;4943377;28;20171;-68
2022/03/15 09:42:00;;;;;;;38.13;22.02;;;8.80;99.90;;;;;;4934942;28;20042;-66
2022/03/15 09:44:28;;;;;;;35.83;21.25;;;8.90;99.90;;;;;;4944118;28;20541;-66
2022/03/15 09:46:59;;;;;;;38.85;21.50;;;8.90;99.90;;;;;;4925747;28;20522;-67
2022/03/15 09:49:27;;;;;;;31.52;21.08;;;9.00;99.90;;;;;;4942167;28;20522;-68
2022/03/15 09:51:55;;;;;;;33.00;20.48;;;9.00;99.90;;;;;;4941566;28;20058;-67
2022/03/15 09:54:22;;;;;;;36.70;21.80;;;9.10;99.90;;;;;;4942855;28;20082;-67
2022/03/15 09:56:48;;;;;;;36.55;22.08;;;9.10;99.90;;;;;;4927023;28;20091;-67
2022/03/15 09:59:26;;;;;;;31.70;21.15;;;9.20;99.90;;;;;;4943017;28;20079;-67
2022/03/15 10:01:53;;;;;;;32.35;20.77;;;9.20;99.90;;;;;;4916605;28;20043;-66
2022/03/15 10:04:21;;;;;;;31.58;21.67;;;9.20;99.90;;;;;;4942466;29;20086;-67
2022/03/15 10:06:48;;;;;;;34.88;21.65;;;9.30;99.90;;;;;;4925541;28;20592;-67
2022/03/15 10:09:14;;;;;;;35.65;21.42;;;9.30;99.90;;;;;;4927713;29;20372;-67
2022/03/15 10:11:41;;;;;;;35.38;21.98;;;9.30;99.90;;;;;;4925410;29;20090;-67
2022/03/15 10:14:08;;;;;;;35.88;21.17;;;9.40;99.90;;;;;;4957975;28;20471;-66
2022/03/15 10:16:42;;;;;;;32.30;21.13;;;9.50;99.90;;;;;;4943386;28;20553;-68
2022/03/15 10:19:09;;;;;;;34.05;20.45;;;9.50;99.90;;;;;;4942565;28;20138;-68
2022/03/15 10:21:39;;;;;;;32.60;19.77;;;9.60;99.90;;;;;;4926410;28;20058;-67
2022/03/15 10:24:07;;;;;;;33.92;20.05;;;9.60;99.90;;;;;;4942526;28;20043;-67
2022/03/15 10:26:37;;;;;;;31.88;20.15;;;9.60;99.90;;;;;;4942314;28;20097;-66
2022/03/15 10:29:03;;;;;;;31.02;19.83;;;9.60;99.90;;;;;;4951105;28;20061;-67
2022/03/15 10:31:29;;;;;;;36.58;21.17;;;9.70;99.90;;;;;;4941480;28;20047;-66
2022/03/15 10:34:01;;;;;;;31.10;19.20;;;9.70;99.90;;;;;;4919461;29;20055;-68
2022/03/15 10:36:38;;;;;;;33.75;20.30;;;9.90;99.90;;;;;;4917297;29;20055;-68
2022/03/15 10:39:06;;;;;;;37.22;20.58;;;9.90;99.90;;;;;;4943222;28;20122;-67
2022/03/15 10:41:45;;;;;;;32.13;20.02;;;10.00;99.90;;;;;;4925369;28;20051;-67
2022/03/15 10:44:24;;;;;;;30.63;20.85;;;10.10;99.90;;;;;;4934118;28;20502;-67
2022/03/15 10:47:05;;;;;;;31.52;19.63;;;10.10;99.90;;;;;;4939347;28;20063;-66
2022/03/15 10:49:43;;;;;;;31.02;20.45;;;10.10;99.90;;;;;;4920366;29;20058;-67
2022/03/15 10:52:09;;;;;;;30.27;19.20;;;10.10;99.90;;;;;;4939306;28;20529;-68
2022/03/15 10:54:35;;;;;;;29.40;18.83;;;10.10;99.90;;;;;;4924842;28;20624;-67
2022/03/15 10:57:01;;;;;;;28.13;19.15;;;10.10;99.90;;;;;;4935792;28;20122;-67
2022/03/15 10:59:28;;;;;;;30.25;20.15;;;10.10;99.90;;;;;;4941602;29;20051;-67
2022/03/15 11:01:54;;;;;;;31.13;19.73;;;10.00;99.90;;;;;;4939586;28;20118;-67
2022/03/15 11:04:20;;;;;;;32.47;20.70;;;10.00;99.90;;;;;;4935446;29;20133;-67
2022/03/15 11:06:51;;;;;;;30.40;20.23;;;10.00;99.90;;;;;;4920866;28;20063;-67
2022/03/15 11:09:25;;;;;;;31.33;20.35;;;10.00;99.90;;;;;;4941075;28;20101;-67
2022/03/15 11:11:59;;;;;;;32.05;20.45;;;10.10;99.90;;;;;;4940791;28;20161;-68
2022/03/15 11:14:40;;;;;;;33.25;20.58;;;10.10;99.90;;;;;;4929863;28;20110;-67
2022/03/15 11:17:24;;;;;;;34.63;19.33;;;10.10;99.90;;;;;;4937596;28;20050;-68
2022/03/15 11:19:53;;;;;;;32.22;20.35;;;10.10;99.90;;;;;;4942161;29;20081;-67
2022/03/15 11:22:25;;;;;;;30.73;19.83;;;10.10;99.90;;;;;;4930809;28;20469;-66
2022/03/15 11:25:14;;;;;;;28.60;19.58;;;10.10;99.90;;;;;;4925931;28;20051;-66
2022/03/15 11:27:42;;;;;;;29.17;19.83;;;10.10;99.90;;;;;;4941313;28;20688;-67
2022/03/15 11:30:13;;;;;;;30.15;19.55;;;10.10;99.90;;;;;;4941180;28;20062;-67
2022/03/15 11:32:40;;;;;;;34.13;20.75;;;10.10;99.90;;;;;;4939725;28;20059;-67
2022/03/15 11:35:09;;;;;;;34.42;20.85;;;10.10;99.90;;;;;;4941080;28;20083;-68
2022/03/15 11:37:36;;;;;;;32.35;19.92;;;10.10;99.90;;;;;;4924754;29;20208;-68
2022/03/15 11:40:05;;;;;;;32.90;21.25;;;10.10;99.90;;;;;;4940417;28;20043;-67
2022/03/15 11:42:35;;;;;;;28.40;18.52;;;10.10;99.90;;;;;;4924768;29;20051;-66
2022/03/15 11:45:10;;;;;;;30.75;17.13;;;10.10;99.90;;;;;;4925988;29;20043;-67
2022/03/15 11:47:48;;;;;;;26.63;15.88;;;10.10;99.90;;;;;;4940196;28;20067;-67
2022/03/15 11:50:27;;;;;;;23.55;15.27;;;10.10;99.90;;;;;;4933112;28;20064;-68
2022/03/15 11:52:53;;;;;;;23.55;14.75;;;10.00;99.90;;;;;;4923373;29;20064;-66
2022/03/15 11:55:34;;;;;;;20.05;13.27;;;10.00;99.90;;;;;;4939356;28;20402;-66
2022/03/15 11:58:07;;;;;;;24.00;11.82;;;10.00;99.90;;;;;;4940139;28;20052;-66
2022/03/15 12:00:44;;;;;;;19.75;11.20;;;10.00;99.90;;;;;;4953268;28;20051;-67
2022/03/15 12:03:15;;;;;;;21.40;12.73;;;10.00;99.90;;;;;;4936737;28;20081;-67
2022/03/15 12:05:49;;;;;;;22.90;13.52;;;10.00;99.90;;;;;;4923914;29;20055;-67
2022/03/15 12:08:21;;;;;;;20.42;13.02;;;9.90;99.90;;;;;;4938690;28;20087;-68
2022/03/15 12:11:06;;;;;;;20.85;13.10;;;9.90;99.90;;;;;;4939776;28;20152;-65
2022/03/15 12:13:47;;;;;;;20.75;13.55;;;9.80;99.90;;;;;;4936992;28;20494;-65
2022/03/15 12:16:17;;;;;;;16.83;10.38;;;9.70;99.90;;;;;;4938849;28;20568;-65
2022/03/15 12:18:45;;;;;;;19.95;11.63;;;9.70;99.90;;;;;;4938599;28;20035;-65
2022/03/15 12:21:11;;;;;;;21.10;12.52;;;9.70;99.90;;;;;;4939458;28;20467;-64
2022/03/15 12:23:47;;;;;;;22.63;13.48;;;9.70;99.90;;;;;;4936258;28;20387;-62
2022/03/15 12:26:27;;;;;;;24.25;13.95;;;9.60;99.90;;;;;;4941078;28;20046;-64
2022/03/15 12:29:02;;;;;;;23.67;13.98;;;9.60;99.90;;;;;;4937554;28;20102;-62
2022/03/15 12:31:44;;;;;;;22.92;13.85;;;9.60;99.90;;;;;;4938812;28;20039;-64
2022/03/15 12:34:12;;;;;;;23.77;12.23;;;9.70;99.90;;;;;;4940678;28;20565;-64
2022/03/15 12:36:50;;;;;;;22.38;13.18;;;9.70;99.90;;;;;;4939900;28;20778;-61
2022/03/15 12:39:22;;;;;;;21.77;12.68;;;9.80;99.90;;;;;;4939911;28;20414;-64
2022/03/15 12:41:50;;;;;;;20.50;13.20;;;9.90;99.90;;;;;;4939079;28;20515;-60